Carmel, New Jersey
Current Conditions -  °F | °C
As of 3:54 AM on Thursday 27 Nov 2014 (Local Time) from KMIV Reporting Station
Overcast Overcast  
Wind Chill: 29°   Ceiling: 7000
Heat Index: 36°   Visibility: 10mi
Dew Point: 33°   Wind: 9mph
Humidity: 89%   Direction: 290°WNW
Pressure: 29.98"   Gusts: NA
Location:  39.3323°N, 74.9928°W
Report Text: KMIV 270854Z AUTO 29008KT 10SM FEW039 SCT049 OVC070 02/01 A2998 RMK AO2 UPB38E47 SLP151 P0000 60000 T00220006 51014
Loading
Personal Weather Stations






























Interactive Weather Map New forecast layout! Learn more

10-Day Weather Forecast

Advertisements
Track Severe Weather on mobile